sensor_id;sensor_type;location;lat;lon;timestamp;P1;durP1;ratioP1;P2;durP2;ratioP2
27383;SDS011;14851;51.166;4.760;2023-08-31T00:02:00;2.80;;;1.40;;
27383;SDS011;14851;51.166;4.760;2023-08-31T00:04:26;2.53;;;1.80;;
27383;SDS011;14851;51.166;4.760;2023-08-31T00:06:52;2.35;;;1.40;;
27383;SDS011;14851;51.166;4.760;2023-08-31T00:09:21;1.50;;;1.40;;
27383;SDS011;14851;51.166;4.760;2023-08-31T00:11:49;3.28;;;1.42;;
27383;SDS011;14851;51.166;4.760;2023-08-31T00:14:15;2.58;;;1.67;;
27383;SDS011;14851;51.166;4.760;2023-08-31T00:16:42;1.98;;;1.60;;
27383;SDS011;14851;51.166;4.760;2023-08-31T00:19:11;1.80;;;1.58;;
27383;SDS011;14851;51.166;4.760;2023-08-31T00:21:39;2.08;;;1.65;;
27383;SDS011;14851;51.166;4.760;2023-08-31T00:24:05;6.57;;;2.03;;
27383;SDS011;14851;51.166;4.760;2023-08-31T00:26:35;2.95;;;1.75;;
27383;SDS011;14851;51.166;4.760;2023-08-31T00:29:06;2.25;;;1.40;;
27383;SDS011;14851;51.166;4.760;2023-08-31T00:31:37;2.15;;;1.65;;
27383;SDS011;14851;51.166;4.760;2023-08-31T00:36:33;3.88;;;1.85;;
27383;SDS011;14851;51.166;4.760;2023-08-31T00:39:05;4.30;;;1.60;;
27383;SDS011;14851;51.166;4.760;2023-08-31T00:41:32;2.53;;;1.55;;
27383;SDS011;14851;51.166;4.760;2023-08-31T00:43:58;4.38;;;1.80;;
27383;SDS011;14851;51.166;4.760;2023-08-31T00:46:24;2.78;;;1.75;;
27383;SDS011;14851;51.166;4.760;2023-08-31T00:48:55;3.42;;;1.60;;
27383;SDS011;14851;51.166;4.760;2023-08-31T00:51:23;4.90;;;1.65;;
27383;SDS011;14851;51.166;4.760;2023-08-31T00:53:51;5.15;;;1.55;;
27383;SDS011;14851;51.166;4.760;2023-08-31T00:58:49;3.97;;;1.83;;
27383;SDS011;14851;51.166;4.760;2023-08-31T01:04:46;3.75;;;1.70;;
27383;SDS011;14851;51.166;4.760;2023-08-31T01:12:53;2.45;;;1.67;;
27383;SDS011;14851;51.166;4.760;2023-08-31T01:15:33;3.03;;;1.90;;
27383;SDS011;14851;51.166;4.760;2023-08-31T01:17:59;3.45;;;1.98;;
27383;SDS011;14851;51.166;4.760;2023-08-31T01:23:18;5.20;;;2.00;;
27383;SDS011;14851;51.166;4.760;2023-08-31T01:25:45;3.55;;;1.98;;
27383;SDS011;14851;51.166;4.760;2023-08-31T01:28:15;5.50;;;2.22;;
27383;SDS011;14851;51.166;4.760;2023-08-31T01:30:41;2.45;;;1.70;;
27383;SDS011;14851;51.166;4.760;2023-08-31T01:33:10;4.20;;;1.92;;
27383;SDS011;14851;51.166;4.760;2023-08-31T01:35:42;3.22;;;2.47;;
27383;SDS011;14851;51.166;4.760;2023-08-31T01:38:13;4.03;;;2.33;;
27383;SDS011;14851;51.166;4.760;2023-08-31T01:41:29;3.10;;;1.98;;
27383;SDS011;14851;51.166;4.760;2023-08-31T01:43:32;3.20;;;2.00;;
27383;SDS011;14851;51.166;4.760;2023-08-31T01:45:59;3.40;;;2.22;;
27383;SDS011;14851;51.166;4.760;2023-08-31T01:48:25;2.30;;;1.85;;
27383;SDS011;14851;51.166;4.760;2023-08-31T01:50:52;3.90;;;2.72;;
27383;SDS011;14851;51.166;4.760;2023-08-31T01:53:18;5.97;;;2.10;;
27383;SDS011;14851;51.166;4.760;2023-08-31T01:55:43;4.45;;;1.80;;
27383;SDS011;14851;51.166;4.760;2023-08-31T01:58:09;3.17;;;2.00;;
27383;SDS011;14851;51.166;4.760;2023-08-31T02:00:35;4.57;;;2.72;;
27383;SDS011;14851;51.166;4.760;2023-08-31T02:03:03;3.53;;;2.53;;
27383;SDS011;14851;51.166;4.760;2023-08-31T02:05:29;4.30;;;2.40;;
27383;SDS011;14851;51.166;4.760;2023-08-31T02:07:55;4.57;;;2.60;;
27383;SDS011;14851;51.166;4.760;2023-08-31T02:10:24;3.97;;;2.92;;
27383;SDS011;14851;51.166;4.760;2023-08-31T02:12:51;4.10;;;2.70;;
27383;SDS011;14851;51.166;4.760;2023-08-31T02:15:17;4.43;;;2.83;;
27383;SDS011;14851;51.166;4.760;2023-08-31T02:17:45;4.00;;;2.30;;
27383;SDS011;14851;51.166;4.760;2023-08-31T02:20:13;3.67;;;2.83;;
27383;SDS011;14851;51.166;4.760;2023-08-31T02:22:39;6.07;;;3.30;;
27383;SDS011;14851;51.166;4.760;2023-08-31T02:25:05;7.35;;;3.15;;
27383;SDS011;14851;51.166;4.760;2023-08-31T02:27:31;4.78;;;3.17;;
27383;SDS011;14851;51.166;4.760;2023-08-31T02:29:57;4.28;;;3.50;;
27383;SDS011;14851;51.166;4.760;2023-08-31T02:32:23;4.38;;;3.22;;
27383;SDS011;14851;51.166;4.760;2023-08-31T02:34:49;5.32;;;3.53;;
27383;SDS011;14851;51.166;4.760;2023-08-31T02:37:15;4.95;;;3.17;;
27383;SDS011;14851;51.166;4.760;2023-08-31T02:39:44;5.68;;;3.28;;
27383;SDS011;14851;51.166;4.760;2023-08-31T02:42:14;5.15;;;3.20;;
27383;SDS011;14851;51.166;4.760;2023-08-31T02:44:40;5.57;;;3.30;;
27383;SDS011;14851;51.166;4.760;2023-08-31T02:47:06;5.13;;;3.50;;
27383;SDS011;14851;51.166;4.760;2023-08-31T02:49:32;4.82;;;3.38;;
27383;SDS011;14851;51.166;4.760;2023-08-31T02:51:59;5.72;;;3.88;;
27383;SDS011;14851;51.166;4.760;2023-08-31T02:54:27;5.45;;;3.20;;
27383;SDS011;14851;51.166;4.760;2023-08-31T02:56:56;4.20;;;3.50;;
27383;SDS011;14851;51.166;4.760;2023-08-31T02:59:22;5.45;;;3.50;;
27383;SDS011;14851;51.166;4.760;2023-08-31T03:01:49;6.07;;;3.67;;
27383;SDS011;14851;51.166;4.760;2023-08-31T03:04:14;7.03;;;4.13;;
27383;SDS011;14851;51.166;4.760;2023-08-31T03:06:40;5.40;;;3.90;;
27383;SDS011;14851;51.166;4.760;2023-08-31T03:09:08;6.88;;;4.07;;
27383;SDS011;14851;51.166;4.760;2023-08-31T03:11:35;5.75;;;3.97;;
27383;SDS011;14851;51.166;4.760;2023-08-31T03:14:03;5.90;;;3.80;;
27383;SDS011;14851;51.166;4.760;2023-08-31T03:16:29;5.40;;;3.58;;
27383;SDS011;14851;51.166;4.760;2023-08-31T03:18:55;5.90;;;4.43;;
27383;SDS011;14851;51.166;4.760;2023-08-31T03:21:21;5.50;;;4.00;;
27383;SDS011;14851;51.166;4.760;2023-08-31T03:23:47;8.27;;;4.00;;
27383;SDS011;14851;51.166;4.760;2023-08-31T03:26:15;3.85;;;3.45;;
27383;SDS011;14851;51.166;4.760;2023-08-31T03:28:41;6.60;;;3.80;;
27383;SDS011;14851;51.166;4.760;2023-08-31T03:31:07;5.75;;;3.55;;
27383;SDS011;14851;51.166;4.760;2023-08-31T03:33:33;7.78;;;4.47;;
27383;SDS011;14851;51.166;4.760;2023-08-31T03:36:02;7.32;;;4.32;;
27383;SDS011;14851;51.166;4.760;2023-08-31T03:38:30;6.50;;;4.53;;
27383;SDS011;14851;51.166;4.760;2023-08-31T03:41:00;7.47;;;4.25;;
27383;SDS011;14851;51.166;4.760;2023-08-31T03:43:26;6.88;;;4.22;;
27383;SDS011;14851;51.166;4.760;2023-08-31T03:45:55;6.38;;;4.45;;
27383;SDS011;14851;51.166;4.760;2023-08-31T03:48:24;5.78;;;4.30;;
27383;SDS011;14851;51.166;4.760;2023-08-31T03:50:51;5.20;;;4.10;;
27383;SDS011;14851;51.166;4.760;2023-08-31T03:53:18;3.83;;;3.10;;
27383;SDS011;14851;51.166;4.760;2023-08-31T03:55:47;6.60;;;3.45;;
27383;SDS011;14851;51.166;4.760;2023-08-31T03:58:14;6.40;;;3.17;;
27383;SDS011;14851;51.166;4.760;2023-08-31T04:00:42;8.73;;;3.55;;
27383;SDS011;14851;51.166;4.760;2023-08-31T04:03:08;7.00;;;3.75;;
27383;SDS011;14851;51.166;4.760;2023-08-31T04:05:35;5.85;;;3.72;;
27383;SDS011;14851;51.166;4.760;2023-08-31T04:08:03;4.30;;;3.42;;
27383;SDS011;14851;51.166;4.760;2023-08-31T04:10:29;7.28;;;4.13;;
27383;SDS011;14851;51.166;4.760;2023-08-31T04:12:57;6.50;;;3.60;;
27383;SDS011;14851;51.166;4.760;2023-08-31T04:15:23;4.43;;;3.53;;
27383;SDS011;14851;51.166;4.760;2023-08-31T04:17:49;10.95;;;3.90;;
27383;SDS011;14851;51.166;4.760;2023-08-31T04:20:15;4.68;;;3.25;;
27383;SDS011;14851;51.166;4.760;2023-08-31T04:22:41;4.80;;;3.72;;
27383;SDS011;14851;51.166;4.760;2023-08-31T04:25:07;5.13;;;3.85;;
27383;SDS011;14851;51.166;4.760;2023-08-31T04:27:33;6.18;;;3.70;;
27383;SDS011;14851;51.166;4.760;2023-08-31T04:30:00;5.15;;;3.85;;
27383;SDS011;14851;51.166;4.760;2023-08-31T04:32:26;4.38;;;3.55;;
27383;SDS011;14851;51.166;4.760;2023-08-31T04:34:52;5.85;;;4.00;;
27383;SDS011;14851;51.166;4.760;2023-08-31T04:37:20;11.25;;;5.40;;
27383;SDS011;14851;51.166;4.760;2023-08-31T04:39:47;6.45;;;4.47;;
27383;SDS011;14851;51.166;4.760;2023-08-31T04:42:13;5.43;;;3.88;;
27383;SDS011;14851;51.166;4.760;2023-08-31T04:44:39;6.13;;;3.80;;
27383;SDS011;14851;51.166;4.760;2023-08-31T04:47:05;9.05;;;4.78;;
27383;SDS011;14851;51.166;4.760;2023-08-31T04:49:30;5.13;;;4.35;;
27383;SDS011;14851;51.166;4.760;2023-08-31T04:51:56;7.85;;;4.43;;
27383;SDS011;14851;51.166;4.760;2023-08-31T04:54:22;5.82;;;4.10;;
27383;SDS011;14851;51.166;4.760;2023-08-31T04:56:48;6.82;;;4.47;;
27383;SDS011;14851;51.166;4.760;2023-08-31T04:59:14;7.45;;;4.53;;
27383;SDS011;14851;51.166;4.760;2023-08-31T05:01:40;6.13;;;4.60;;
27383;SDS011;14851;51.166;4.760;2023-08-31T05:04:06;10.25;;;5.13;;
27383;SDS011;14851;51.166;4.760;2023-08-31T05:06:32;9.82;;;5.28;;
27383;SDS011;14851;51.166;4.760;2023-08-31T05:08:58;8.48;;;5.07;;
27383;SDS011;14851;51.166;4.760;2023-08-31T05:11:26;5.75;;;4.88;;
27383;SDS011;14851;51.166;4.760;2023-08-31T05:13:52;6.25;;;5.60;;
27383;SDS011;14851;51.166;4.760;2023-08-31T05:16:18;9.50;;;5.25;;
27383;SDS011;14851;51.166;4.760;2023-08-31T05:18:46;7.03;;;4.75;;
27383;SDS011;14851;51.166;4.760;2023-08-31T05:21:13;7.50;;;6.63;;
27383;SDS011;14851;51.166;4.760;2023-08-31T05:23:41;8.82;;;7.20;;
27383;SDS011;14851;51.166;4.760;2023-08-31T05:26:10;10.52;;;7.65;;
27383;SDS011;14851;51.166;4.760;2023-08-31T05:28:40;10.38;;;7.10;;
27383;SDS011;14851;51.166;4.760;2023-08-31T05:31:09;10.05;;;6.13;;
27383;SDS011;14851;51.166;4.760;2023-08-31T05:33:40;7.90;;;5.97;;
27383;SDS011;14851;51.166;4.760;2023-08-31T05:36:07;7.55;;;6.15;;
27383;SDS011;14851;51.166;4.760;2023-08-31T05:38:33;9.02;;;6.18;;
27383;SDS011;14851;51.166;4.760;2023-08-31T05:41:05;8.93;;;6.53;;
27383;SDS011;14851;51.166;4.760;2023-08-31T05:43:32;9.00;;;6.35;;
27383;SDS011;14851;51.166;4.760;2023-08-31T05:46:03;8.88;;;6.07;;
27383;SDS011;14851;51.166;4.760;2023-08-31T05:48:29;10.30;;;6.53;;
27383;SDS011;14851;51.166;4.760;2023-08-31T05:50:58;6.72;;;6.05;;
27383;SDS011;14851;51.166;4.760;2023-08-31T05:53:24;7.22;;;5.88;;
27383;SDS011;14851;51.166;4.760;2023-08-31T05:55:50;7.10;;;5.70;;
27383;SDS011;14851;51.166;4.760;2023-08-31T05:58:16;8.82;;;6.28;;
27383;SDS011;14851;51.166;4.760;2023-08-31T06:00:42;11.13;;;6.47;;
27383;SDS011;14851;51.166;4.760;2023-08-31T06:03:08;12.35;;;6.88;;
27383;SDS011;14851;51.166;4.760;2023-08-31T06:05:36;6.47;;;5.53;;
27383;SDS011;14851;51.166;4.760;2023-08-31T06:08:04;6.32;;;5.50;;
27383;SDS011;14851;51.166;4.760;2023-08-31T06:10:30;7.75;;;5.72;;
27383;SDS011;14851;51.166;4.760;2023-08-31T06:12:58;8.77;;;6.13;;
27383;SDS011;14851;51.166;4.760;2023-08-31T06:15:24;6.68;;;4.40;;
27383;SDS011;14851;51.166;4.760;2023-08-31T06:17:50;5.60;;;3.78;;
27383;SDS011;14851;51.166;4.760;2023-08-31T06:20:16;9.15;;;5.80;;
27383;SDS011;14851;51.166;4.760;2023-08-31T06:22:42;6.65;;;5.80;;
27383;SDS011;14851;51.166;4.760;2023-08-31T06:25:08;10.40;;;5.72;;
27383;SDS011;14851;51.166;4.760;2023-08-31T06:27:41;7.45;;;5.28;;
27383;SDS011;14851;51.166;4.760;2023-08-31T06:30:28;9.07;;;5.45;;
27383;SDS011;14851;51.166;4.760;2023-08-31T06:32:53;8.30;;;6.20;;
27383;SDS011;14851;51.166;4.760;2023-08-31T06:35:19;9.07;;;5.68;;
27383;SDS011;14851;51.166;4.760;2023-08-31T06:37:46;11.13;;;6.70;;
27383;SDS011;14851;51.166;4.760;2023-08-31T06:40:12;9.40;;;6.32;;
27383;SDS011;14851;51.166;4.760;2023-08-31T06:42:38;12.63;;;6.30;;
27383;SDS011;14851;51.166;4.760;2023-08-31T06:45:07;12.27;;;5.65;;
27383;SDS011;14851;51.166;4.760;2023-08-31T06:47:34;14.95;;;7.15;;
27383;SDS011;14851;51.166;4.760;2023-08-31T06:50:03;12.88;;;6.63;;
27383;SDS011;14851;51.166;4.760;2023-08-31T06:52:31;14.07;;;7.47;;
27383;SDS011;14851;51.166;4.760;2023-08-31T06:54:59;11.02;;;6.00;;
27383;SDS011;14851;51.166;4.760;2023-08-31T06:57:29;8.05;;;6.30;;
27383;SDS011;14851;51.166;4.760;2023-08-31T06:59:55;8.30;;;5.68;;
27383;SDS011;14851;51.166;4.760;2023-08-31T07:02:21;11.13;;;5.75;;
27383;SDS011;14851;51.166;4.760;2023-08-31T07:04:48;15.63;;;6.72;;
27383;SDS011;14851;51.166;4.760;2023-08-31T07:07:16;9.13;;;5.90;;
27383;SDS011;14851;51.166;4.760;2023-08-31T07:09:42;11.73;;;6.32;;
27383;SDS011;14851;51.166;4.760;2023-08-31T07:12:11;10.23;;;6.32;;
27383;SDS011;14851;51.166;4.760;2023-08-31T07:14:37;9.32;;;6.10;;
27383;SDS011;14851;51.166;4.760;2023-08-31T07:17:03;9.10;;;6.30;;
27383;SDS011;14851;51.166;4.760;2023-08-31T07:19:34;10.50;;;6.10;;
27383;SDS011;14851;51.166;4.760;2023-08-31T07:22:02;12.68;;;6.40;;
27383;SDS011;14851;51.166;4.760;2023-08-31T07:24:29;9.32;;;6.60;;
27383;SDS011;14851;51.166;4.760;2023-08-31T07:27:00;10.45;;;6.20;;
27383;SDS011;14851;51.166;4.760;2023-08-31T07:29:28;17.75;;;7.43;;
27383;SDS011;14851;51.166;4.760;2023-08-31T07:31:55;16.60;;;6.53;;
27383;SDS011;14851;51.166;4.760;2023-08-31T07:34:21;11.77;;;5.90;;
27383;SDS011;14851;51.166;4.760;2023-08-31T07:36:47;11.70;;;5.60;;
27383;SDS011;14851;51.166;4.760;2023-08-31T07:39:13;13.15;;;6.32;;
27383;SDS011;14851;51.166;4.760;2023-08-31T07:41:39;10.23;;;6.22;;
27383;SDS011;14851;51.166;4.760;2023-08-31T07:44:07;9.95;;;5.93;;
27383;SDS011;14851;51.166;4.760;2023-08-31T07:46:33;12.05;;;4.80;;
27383;SDS011;14851;51.166;4.760;2023-08-31T07:48:58;10.43;;;5.95;;
27383;SDS011;14851;51.166;4.760;2023-08-31T07:51:27;7.05;;;3.92;;
27383;SDS011;14851;51.166;4.760;2023-08-31T07:53:55;10.10;;;5.60;;
27383;SDS011;14851;51.166;4.760;2023-08-31T07:56:22;13.52;;;5.90;;
27383;SDS011;14851;51.166;4.760;2023-08-31T07:58:49;9.90;;;5.55;;
27383;SDS011;14851;51.166;4.760;2023-08-31T08:01:15;12.10;;;5.43;;
27383;SDS011;14851;51.166;4.760;2023-08-31T08:03:41;9.75;;;4.70;;
27383;SDS011;14851;51.166;4.760;2023-08-31T08:06:07;13.27;;;4.97;;
27383;SDS011;14851;51.166;4.760;2023-08-31T08:08:34;11.85;;;5.07;;
27383;SDS011;14851;51.166;4.760;2023-08-31T08:11:04;12.38;;;6.63;;
27383;SDS011;14851;51.166;4.760;2023-08-31T08:13:30;12.35;;;5.50;;
27383;SDS011;14851;51.166;4.760;2023-08-31T08:15:56;10.88;;;4.80;;
27383;SDS011;14851;51.166;4.760;2023-08-31T08:18:22;9.38;;;5.80;;
27383;SDS011;14851;51.166;4.760;2023-08-31T08:20:52;12.25;;;5.90;;
27383;SDS011;14851;51.166;4.760;2023-08-31T08:23:19;14.03;;;6.20;;
27383;SDS011;14851;51.166;4.760;2023-08-31T08:25:48;13.33;;;5.77;;
27383;SDS011;14851;51.166;4.760;2023-08-31T08:28:14;8.05;;;4.85;;
27383;SDS011;14851;51.166;4.760;2023-08-31T08:30:39;11.63;;;5.18;;
27383;SDS011;14851;51.166;4.760;2023-08-31T08:33:05;11.40;;;4.95;;
27383;SDS011;14851;51.166;4.760;2023-08-31T08:35:33;9.07;;;4.03;;
27383;SDS011;14851;51.166;4.760;2023-08-31T08:37:59;11.27;;;4.53;;
27383;SDS011;14851;51.166;4.760;2023-08-31T08:40:25;11.48;;;4.65;;
27383;SDS011;14851;51.166;4.760;2023-08-31T08:42:51;10.35;;;4.28;;
27383;SDS011;14851;51.166;4.760;2023-08-31T08:45:19;10.65;;;4.90;;
27383;SDS011;14851;51.166;4.760;2023-08-31T08:47:51;12.13;;;4.82;;
27383;SDS011;14851;51.166;4.760;2023-08-31T08:50:20;8.23;;;4.90;;
27383;SDS011;14851;51.166;4.760;2023-08-31T08:52:48;11.70;;;4.88;;
27383;SDS011;14851;51.166;4.760;2023-08-31T08:55:14;10.18;;;5.63;;
27383;SDS011;14851;51.166;4.760;2023-08-31T08:57:40;10.32;;;4.90;;
27383;SDS011;14851;51.166;4.760;2023-08-31T09:00:06;13.85;;;5.68;;
27383;SDS011;14851;51.166;4.760;2023-08-31T09:02:33;8.52;;;4.30;;
27383;SDS011;14851;51.166;4.760;2023-08-31T09:04:59;9.90;;;4.18;;
27383;SDS011;14851;51.166;4.760;2023-08-31T09:07:27;8.85;;;4.28;;
27383;SDS011;14851;51.166;4.760;2023-08-31T09:09:55;10.40;;;4.10;;
27383;SDS011;14851;51.166;4.760;2023-08-31T09:12:22;8.77;;;4.30;;
27383;SDS011;14851;51.166;4.760;2023-08-31T09:15:01;9.93;;;4.05;;
27383;SDS011;14851;51.166;4.760;2023-08-31T09:17:42;8.90;;;4.55;;
27383;SDS011;14851;51.166;4.760;2023-08-31T09:20:12;9.40;;;4.13;;
27383;SDS011;14851;51.166;4.760;2023-08-31T09:22:42;10.00;;;4.25;;
27383;SDS011;14851;51.166;4.760;2023-08-31T09:25:11;6.78;;;3.92;;
27383;SDS011;14851;51.166;4.760;2023-08-31T09:27:37;6.18;;;3.33;;
27383;SDS011;14851;51.166;4.760;2023-08-31T09:30:09;9.23;;;3.80;;
27383;SDS011;14851;51.166;4.760;2023-08-31T09:32:36;9.35;;;4.07;;
27383;SDS011;14851;51.166;4.760;2023-08-31T09:35:02;7.32;;;3.50;;
27383;SDS011;14851;51.166;4.760;2023-08-31T09:37:29;8.77;;;3.72;;
27383;SDS011;14851;51.166;4.760;2023-08-31T09:39:54;6.13;;;2.97;;
27383;SDS011;14851;51.166;4.760;2023-08-31T09:42:20;10.15;;;3.75;;
27383;SDS011;14851;51.166;4.760;2023-08-31T09:44:48;10.32;;;3.42;;
27383;SDS011;14851;51.166;4.760;2023-08-31T09:47:17;8.55;;;4.03;;
27383;SDS011;14851;51.166;4.760;2023-08-31T09:49:45;7.45;;;3.75;;
27383;SDS011;14851;51.166;4.760;2023-08-31T09:52:12;5.65;;;3.00;;
27383;SDS011;14851;51.166;4.760;2023-08-31T09:54:39;6.07;;;3.13;;
27383;SDS011;14851;51.166;4.760;2023-08-31T09:57:09;11.65;;;3.92;;
27383;SDS011;14851;51.166;4.760;2023-08-31T09:59:41;8.55;;;3.47;;
27383;SDS011;14851;51.166;4.760;2023-08-31T10:02:11;5.93;;;2.22;;
27383;SDS011;14851;51.166;4.760;2023-08-31T10:04:42;8.52;;;3.17;;
27383;SDS011;14851;51.166;4.760;2023-08-31T10:07:10;4.55;;;2.38;;
27383;SDS011;14851;51.166;4.760;2023-08-31T10:09:40;5.13;;;3.00;;
27383;SDS011;14851;51.166;4.760;2023-08-31T10:12:07;6.88;;;3.50;;
27383;SDS011;14851;51.166;4.760;2023-08-31T10:14:36;6.00;;;3.03;;
27383;SDS011;14851;51.166;4.760;2023-08-31T10:17:03;5.57;;;3.05;;
27383;SDS011;14851;51.166;4.760;2023-08-31T10:19:32;5.03;;;3.10;;
27383;SDS011;14851;51.166;4.760;2023-08-31T10:22:00;4.50;;;2.50;;
27383;SDS011;14851;51.166;4.760;2023-08-31T10:27:41;7.03;;;3.60;;
27383;SDS011;14851;51.166;4.760;2023-08-31T10:35:41;5.25;;;2.53;;
27383;SDS011;14851;51.166;4.760;2023-08-31T10:38:14;6.45;;;2.75;;
27383;SDS011;14851;51.166;4.760;2023-08-31T10:40:41;6.25;;;2.85;;
27383;SDS011;14851;51.166;4.760;2023-08-31T10:43:26;5.78;;;3.08;;
27383;SDS011;14851;51.166;4.760;2023-08-31T10:45:54;5.28;;;2.78;;
27383;SDS011;14851;51.166;4.760;2023-08-31T10:48:20;7.03;;;2.45;;
27383;SDS011;14851;51.166;4.760;2023-08-31T10:50:46;5.93;;;2.95;;
27383;SDS011;14851;51.166;4.760;2023-08-31T10:53:18;3.92;;;2.30;;
27383;SDS011;14851;51.166;4.760;2023-08-31T10:55:53;5.05;;;2.08;;
27383;SDS011;14851;51.166;4.760;2023-08-31T10:58:20;6.55;;;1.85;;
27383;SDS011;14851;51.166;4.760;2023-08-31T11:00:46;7.45;;;2.40;;
27383;SDS011;14851;51.166;4.760;2023-08-31T11:03:17;5.00;;;2.00;;
27383;SDS011;14851;51.166;4.760;2023-08-31T11:05:52;7.00;;;1.80;;
27383;SDS011;14851;51.166;4.760;2023-08-31T11:08:22;5.90;;;2.00;;
27383;SDS011;14851;51.166;4.760;2023-08-31T11:10:48;10.00;;;2.58;;
27383;SDS011;14851;51.166;4.760;2023-08-31T11:13:20;4.38;;;1.98;;
27383;SDS011;14851;51.166;4.760;2023-08-31T11:15:49;6.18;;;2.55;;
27383;SDS011;14851;51.166;4.760;2023-08-31T11:18:18;5.13;;;2.25;;
27383;SDS011;14851;51.166;4.760;2023-08-31T11:20:48;6.28;;;2.20;;
27383;SDS011;14851;51.166;4.760;2023-08-31T11:23:15;5.13;;;2.22;;
27383;SDS011;14851;51.166;4.760;2023-08-31T11:25:42;12.25;;;2.67;;
27383;SDS011;14851;51.166;4.760;2023-08-31T11:28:14;5.28;;;1.70;;
27383;SDS011;14851;51.166;4.760;2023-08-31T11:30:40;4.43;;;1.77;;
27383;SDS011;14851;51.166;4.760;2023-08-31T11:33:09;4.75;;;1.75;;
27383;SDS011;14851;51.166;4.760;2023-08-31T11:35:37;4.45;;;1.80;;
27383;SDS011;14851;51.166;4.760;2023-08-31T11:38:06;4.03;;;1.90;;
27383;SDS011;14851;51.166;4.760;2023-08-31T11:40:32;8.20;;;2.22;;
27383;SDS011;14851;51.166;4.760;2023-08-31T11:43:04;4.10;;;1.58;;
27383;SDS011;14851;51.166;4.760;2023-08-31T11:45:34;3.25;;;1.48;;
27383;SDS011;14851;51.166;4.760;2023-08-31T11:48:06;6.32;;;1.50;;
27383;SDS011;14851;51.166;4.760;2023-08-31T11:50:35;6.03;;;1.80;;
27383;SDS011;14851;51.166;4.760;2023-08-31T11:53:04;4.03;;;1.90;;
27383;SDS011;14851;51.166;4.760;2023-08-31T11:55:30;5.68;;;1.50;;
27383;SDS011;14851;51.166;4.760;2023-08-31T11:57:58;3.45;;;1.35;;
27383;SDS011;14851;51.166;4.760;2023-08-31T12:00:24;3.95;;;1.38;;
27383;SDS011;14851;51.166;4.760;2023-08-31T12:05:26;6.03;;;2.00;;
27383;SDS011;14851;51.166;4.760;2023-08-31T12:07:56;3.65;;;1.55;;
27383;SDS011;14851;51.166;4.760;2023-08-31T12:10:26;4.30;;;1.42;;
27383;SDS011;14851;51.166;4.760;2023-08-31T12:12:52;3.20;;;1.70;;
27383;SDS011;14851;51.166;4.760;2023-08-31T12:15:20;6.60;;;2.05;;
27383;SDS011;14851;51.166;4.760;2023-08-31T12:17:48;3.25;;;1.52;;
27383;SDS011;14851;51.166;4.760;2023-08-31T12:20:24;8.63;;;1.85;;
27383;SDS011;14851;51.166;4.760;2023-08-31T12:22:55;4.82;;;1.83;;
27383;SDS011;14851;51.166;4.760;2023-08-31T12:25:21;4.43;;;1.70;;
27383;SDS011;14851;51.166;4.760;2023-08-31T12:27:48;6.68;;;1.90;;
27383;SDS011;14851;51.166;4.760;2023-08-31T12:30:15;6.30;;;2.22;;
27383;SDS011;14851;51.166;4.760;2023-08-31T12:32:41;2.90;;;1.55;;
27383;SDS011;14851;51.166;4.760;2023-08-31T12:35:07;5.25;;;1.70;;
27383;SDS011;14851;51.166;4.760;2023-08-31T12:37:35;4.43;;;2.13;;
27383;SDS011;14851;51.166;4.760;2023-08-31T12:40:00;5.57;;;2.38;;
27383;SDS011;14851;51.166;4.760;2023-08-31T12:42:31;6.50;;;2.22;;
27383;SDS011;14851;51.166;4.760;2023-08-31T12:44:57;3.55;;;1.98;;
27383;SDS011;14851;51.166;4.760;2023-08-31T12:47:22;3.78;;;2.05;;
27383;SDS011;14851;51.166;4.760;2023-08-31T12:49:49;4.63;;;2.00;;
27383;SDS011;14851;51.166;4.760;2023-08-31T12:52:15;6.43;;;2.40;;
27383;SDS011;14851;51.166;4.760;2023-08-31T12:54:43;5.78;;;2.00;;
27383;SDS011;14851;51.166;4.760;2023-08-31T12:57:10;4.75;;;2.03;;
27383;SDS011;14851;51.166;4.760;2023-08-31T12:59:37;4.97;;;1.95;;
27383;SDS011;14851;51.166;4.760;2023-08-31T13:02:03;4.40;;;2.10;;
27383;SDS011;14851;51.166;4.760;2023-08-31T13:07:00;4.25;;;1.65;;
27383;SDS011;14851;51.166;4.760;2023-08-31T13:09:26;5.68;;;1.73;;
27383;SDS011;14851;51.166;4.760;2023-08-31T13:11:53;5.45;;;2.00;;
27383;SDS011;14851;51.166;4.760;2023-08-31T13:14:19;6.07;;;1.60;;
27383;SDS011;14851;51.166;4.760;2023-08-31T13:16:45;6.50;;;1.80;;
27383;SDS011;14851;51.166;4.760;2023-08-31T13:19:12;5.95;;;2.03;;
27383;SDS011;14851;51.166;4.760;2023-08-31T13:21:40;7.28;;;1.50;;
27383;SDS011;14851;51.166;4.760;2023-08-31T13:24:06;5.72;;;1.50;;
27383;SDS011;14851;51.166;4.760;2023-08-31T13:26:32;4.28;;;1.25;;
27383;SDS011;14851;51.166;4.760;2023-08-31T13:28:58;6.60;;;1.60;;
27383;SDS011;14851;51.166;4.760;2023-08-31T13:31:23;6.05;;;1.63;;
27383;SDS011;14851;51.166;4.760;2023-08-31T13:33:50;6.00;;;1.80;;
27383;SDS011;14851;51.166;4.760;2023-08-31T13:36:18;2.83;;;1.33;;
27383;SDS011;14851;51.166;4.760;2023-08-31T13:38:45;5.93;;;1.70;;
27383;SDS011;14851;51.166;4.760;2023-08-31T13:41:16;5.57;;;1.40;;
27383;SDS011;14851;51.166;4.760;2023-08-31T13:43:45;4.60;;;1.40;;
27383;SDS011;14851;51.166;4.760;2023-08-31T13:46:13;5.45;;;1.17;;
27383;SDS011;14851;51.166;4.760;2023-08-31T13:48:42;5.20;;;1.75;;
27383;SDS011;14851;51.166;4.760;2023-08-31T13:51:08;3.53;;;1.35;;
27383;SDS011;14851;51.166;4.760;2023-08-31T13:53:36;5.32;;;1.27;;
27383;SDS011;14851;51.166;4.760;2023-08-31T13:56:05;5.28;;;1.60;;
27383;SDS011;14851;51.166;4.760;2023-08-31T13:58:32;3.85;;;1.20;;
27383;SDS011;14851;51.166;4.760;2023-08-31T14:01:00;6.30;;;2.10;;
27383;SDS011;14851;51.166;4.760;2023-08-31T14:03:29;6.05;;;1.55;;
27383;SDS011;14851;51.166;4.760;2023-08-31T14:05:57;5.57;;;1.45;;
27383;SDS011;14851;51.166;4.760;2023-08-31T14:08:23;4.40;;;1.55;;
27383;SDS011;14851;51.166;4.760;2023-08-31T14:10:52;7.25;;;1.83;;
27383;SDS011;14851;51.166;4.760;2023-08-31T14:13:19;4.80;;;1.55;;
27383;SDS011;14851;51.166;4.760;2023-08-31T14:15:45;3.78;;;1.60;;
27383;SDS011;14851;51.166;4.760;2023-08-31T14:18:12;4.50;;;1.60;;
27383;SDS011;14851;51.166;4.760;2023-08-31T14:20:39;6.32;;;1.40;;
27383;SDS011;14851;51.166;4.760;2023-08-31T14:23:08;5.13;;;1.45;;
27383;SDS011;14851;51.166;4.760;2023-08-31T14:25:37;4.90;;;1.38;;
27383;SDS011;14851;51.166;4.760;2023-08-31T14:28:05;3.25;;;1.20;;
27383;SDS011;14851;51.166;4.760;2023-08-31T14:30:31;4.38;;;1.13;;
27383;SDS011;14851;51.166;4.760;2023-08-31T14:32:57;3.75;;;1.13;;
27383;SDS011;14851;51.166;4.760;2023-08-31T14:35:23;4.72;;;1.50;;
27383;SDS011;14851;51.166;4.760;2023-08-31T14:37:49;4.47;;;1.50;;
27383;SDS011;14851;51.166;4.760;2023-08-31T14:40:15;3.13;;;1.23;;
27383;SDS011;14851;51.166;4.760;2023-08-31T14:42:42;3.60;;;1.35;;
27383;SDS011;14851;51.166;4.760;2023-08-31T14:45:10;5.55;;;1.58;;
27383;SDS011;14851;51.166;4.760;2023-08-31T14:47:37;4.97;;;1.63;;
27383;SDS011;14851;51.166;4.760;2023-08-31T14:50:03;5.47;;;1.45;;
27383;SDS011;14851;51.166;4.760;2023-08-31T14:52:30;3.90;;;1.20;;
27383;SDS011;14851;51.166;4.760;2023-08-31T14:54:57;10.35;;;1.60;;
27383;SDS011;14851;51.166;4.760;2023-08-31T14:57:23;4.13;;;1.23;;
27383;SDS011;14851;51.166;4.760;2023-08-31T14:59:48;5.50;;;1.35;;
27383;SDS011;14851;51.166;4.760;2023-08-31T15:02:19;4.07;;;1.40;;
27383;SDS011;14851;51.166;4.760;2023-08-31T15:04:48;2.80;;;1.30;;
27383;SDS011;14851;51.166;4.760;2023-08-31T15:07:15;5.93;;;1.38;;
27383;SDS011;14851;51.166;4.760;2023-08-31T15:09:42;3.05;;;1.40;;
27383;SDS011;14851;51.166;4.760;2023-08-31T15:12:08;3.55;;;1.50;;
27383;SDS011;14851;51.166;4.760;2023-08-31T15:14:34;4.22;;;1.45;;
27383;SDS011;14851;51.166;4.760;2023-08-31T15:17:00;4.25;;;1.80;;
27383;SDS011;14851;51.166;4.760;2023-08-31T15:19:26;6.28;;;1.40;;